Santa Lucia, Brazil
Current Conditions -  °F | °C
As of 11:00 PM on Wednesday 26 Nov 2014 (Local Time) from SBCA Reporting Station
Few Clouds Few Clouds  
Wind Chill: 70°   Ceiling: Unl
Heat Index: 70°   Visibility: 6mi
Dew Point: 59°   Wind: 7mph
Humidity: 68%   Direction: 270°W
Pressure: 29.91"   Gusts: NA
Location:  25.41°S, 53.57°W
Report Text: SBCA 270100Z 27006KT 9999 FEW040 21/15 Q1013
Loading
Personal Weather Stations






























Interactive Weather Map New forecast layout! Learn more

10-Day Weather Forecast

Advertisements
Track Severe Weather on mobile